createdAt,value
2019-05-20T00:00:54.793Z,22.37
2019-05-20T00:03:25.507Z,20.47
2019-05-20T00:05:54.137Z,21.50
2019-05-20T00:08:22.586Z,17.43
2019-05-20T00:10:50.906Z,18.03
2019-05-20T00:13:19.544Z,18.57
2019-05-20T00:15:48.035Z,19.37
2019-05-20T00:18:20.538Z,18.30
2019-05-20T00:20:53.347Z,19.00
2019-05-20T00:23:24.017Z,16.17
2019-05-20T00:25:54.648Z,22.60
2019-05-20T00:28:25.284Z,17.27
2019-05-20T00:30:55.915Z,16.97
2019-05-20T00:33:24.526Z,15.40
2019-05-20T00:35:55.363Z,17.13
2019-05-20T00:38:26.059Z,23.30
2019-05-20T00:40:54.210Z,19.40
2019-05-20T00:43:22.718Z,17.67
2019-05-20T00:45:51.049Z,18.27
2019-05-20T00:48:19.437Z,14.97
2019-05-20T00:50:47.882Z,16.07
2019-05-20T00:53:16.109Z,21.33
2019-05-20T00:55:45.365Z,18.97
2019-05-20T00:58:13.711Z,19.83
2019-05-20T01:00:41.914Z,19.37
2019-05-20T01:03:10.244Z,16.83
2019-05-20T01:05:39.067Z,19.00
2019-05-20T01:08:07.592Z,23.00
2019-05-20T01:10:35.925Z,19.23
2019-05-20T01:13:04.267Z,20.80
2019-05-20T01:15:33.298Z,19.60
2019-05-20T01:18:01.637Z,31.73
2019-05-20T01:20:29.833Z,23.73
2019-05-20T01:22:58.190Z,20.83
2019-05-20T01:25:26.513Z,18.90
2019-05-20T01:27:55.149Z,18.40
2019-05-20T01:30:24.388Z,20.53
2019-05-20T01:32:52.725Z,18.40
2019-05-20T01:35:20.946Z,19.80
2019-05-20T01:37:49.167Z,16.67
2019-05-20T01:40:17.332Z,16.30
2019-05-20T01:42:45.691Z,17.20
2019-05-20T01:45:13.894Z,17.37
2019-05-20T01:47:42.406Z,15.27
2019-05-20T01:50:10.708Z,20.03
2019-05-20T01:52:39.144Z,21.77
2019-05-20T01:55:07.846Z,17.60
2019-05-20T01:57:37.537Z,18.57
2019-05-20T02:00:07.483Z,19.10
2019-05-20T02:02:35.859Z,18.43
2019-05-20T02:05:05.518Z,19.50
2019-05-20T02:07:34.372Z,19.50
2019-05-20T02:10:02.687Z,18.00
2019-05-20T02:12:31.146Z,20.30
2019-05-20T02:15:07.005Z,16.73
2019-05-20T02:17:35.402Z,14.57
2019-05-20T02:20:05.225Z,14.63
2019-05-20T02:22:33.481Z,17.07
2019-05-20T02:25:01.673Z,20.23
2019-05-20T02:27:29.921Z,20.50
2019-05-20T02:29:58.357Z,18.47
2019-05-20T02:32:26.620Z,20.70
2019-05-20T02:34:55.112Z,17.23
2019-05-20T02:37:23.275Z,19.13
2019-05-20T02:39:51.849Z,16.80
2019-05-20T02:42:20.408Z,15.27
2019-05-20T02:44:48.714Z,14.90
2019-05-20T02:47:17.045Z,16.17
2019-05-20T02:49:45.559Z,20.10
2019-05-20T02:52:13.973Z,17.98
2019-05-20T02:54:42.499Z,14.70
2019-05-20T02:57:11.122Z,17.93
2019-05-20T02:59:40.206Z,15.83
2019-05-20T03:02:08.406Z,13.07
2019-05-20T03:04:37.100Z,12.67
2019-05-20T03:07:05.439Z,18.53
2019-05-20T03:09:33.892Z,19.20
2019-05-20T03:12:02.538Z,22.30
2019-05-20T03:14:31.157Z,16.17
2019-05-20T03:16:59.641Z,15.00
2019-05-20T03:19:28.050Z,14.80
2019-05-20T03:21:56.202Z,17.30
2019-05-20T03:24:24.597Z,15.27
2019-05-20T03:26:53.042Z,15.63
2019-05-20T03:29:21.204Z,14.57
2019-05-20T03:31:49.405Z,15.30
2019-05-20T03:34:42.187Z,15.83
2019-05-20T03:36:47.877Z,17.50
2019-05-20T03:39:16.739Z,15.57
2019-05-20T03:41:45.087Z,17.07
2019-05-20T03:44:13.250Z,15.83
2019-05-20T03:46:41.610Z,17.87
2019-05-20T03:49:09.975Z,17.57
2019-05-20T03:51:38.287Z,18.43
2019-05-20T03:54:06.852Z,15.70
2019-05-20T03:56:35.313Z,25.43
2019-05-20T03:59:04.034Z,17.37
2019-05-20T04:01:33.212Z,24.33
2019-05-20T04:04:01.573Z,21.50
2019-05-20T04:06:29.973Z,23.00
2019-05-20T04:08:58.481Z,17.73
2019-05-20T04:11:26.847Z,18.47
2019-05-20T04:13:55.436Z,17.67
2019-05-20T04:16:23.969Z,16.83
2019-05-20T04:18:54.289Z,17.77
2019-05-20T04:21:22.737Z,18.63
2019-05-20T04:23:51.158Z,17.70
2019-05-20T04:26:19.999Z,20.03
2019-05-20T04:28:48.443Z,20.20
2019-05-20T04:31:16.640Z,17.13
2019-05-20T04:33:45.207Z,18.90
2019-05-20T04:36:13.681Z,18.10
2019-05-20T04:38:41.877Z,15.47
2019-05-20T04:41:10.221Z,17.80
2019-05-20T04:43:38.477Z,16.17
2019-05-20T04:46:06.862Z,15.10
2019-05-20T04:48:35.131Z,11.63
2019-05-20T04:51:03.572Z,12.37
2019-05-20T04:53:31.772Z,13.53
2019-05-20T04:56:00.099Z,15.83
2019-05-20T04:58:28.329Z,16.87
2019-05-20T05:00:57.009Z,16.70
2019-05-20T05:03:26.011Z,21.23
2019-05-20T05:05:54.435Z,26.60
2019-05-20T05:08:22.941Z,22.83
2019-05-20T05:10:51.392Z,22.23
2019-05-20T05:13:19.821Z,21.90
2019-05-20T05:15:48.298Z,19.00
2019-05-20T05:18:16.554Z,19.23
2019-05-20T05:20:44.788Z,10.07
2019-05-20T05:23:13.075Z,9.23
2019-05-20T05:25:41.444Z,10.33
2019-05-20T05:28:09.851Z,9.27
2019-05-20T05:30:38.126Z,8.60
2019-05-20T05:33:06.627Z,8.80
2019-05-20T05:35:34.764Z,9.13
2019-05-20T05:38:03.427Z,11.27
2019-05-20T05:40:31.752Z,11.43
2019-05-20T05:42:59.924Z,9.07
2019-05-20T05:45:29.774Z,10.30
2019-05-20T05:47:58.033Z,11.03
2019-05-20T05:50:26.417Z,10.07
2019-05-20T05:52:54.628Z,8.30
2019-05-20T05:55:22.793Z,11.23
2019-05-20T05:57:50.940Z,9.43
2019-05-20T06:00:19.549Z,10.40
2019-05-20T06:02:48.379Z,10.47
2019-05-20T06:05:17.446Z,9.23
2019-05-20T06:07:46.010Z,8.33
2019-05-20T06:10:14.296Z,7.33
2019-05-20T06:12:42.552Z,7.50
2019-05-20T06:15:10.835Z,6.80
2019-05-20T06:17:39.351Z,7.00
2019-05-20T06:20:07.818Z,7.70
2019-05-20T06:22:36.236Z,6.50
2019-05-20T06:25:05.532Z,8.63
2019-05-20T06:27:33.729Z,9.57
2019-05-20T06:30:02.437Z,9.00
2019-05-20T06:32:30.596Z,7.60
2019-05-20T06:34:58.923Z,6.23
2019-05-20T06:37:35.151Z,68.30
2019-05-20T06:40:03.303Z,15.47
2019-05-20T06:42:31.457Z,8.80
2019-05-20T06:44:59.644Z,8.43
2019-05-20T06:47:27.796Z,8.80
2019-05-20T06:49:56.088Z,6.97
2019-05-20T06:52:35.462Z,6.83
2019-05-20T06:54:54.565Z,6.43
2019-05-20T06:57:24.019Z,5.40
2019-05-20T06:59:52.507Z,6.27
2019-05-20T07:02:20.994Z,5.05
2019-05-20T07:04:49.531Z,4.55
2019-05-20T07:07:21.344Z,5.03
2019-05-20T07:09:48.837Z,2.62
2019-05-20T07:12:17.554Z,1.60
2019-05-20T07:14:45.927Z,2.60
2019-05-20T07:17:14.418Z,1.90
2019-05-20T07:19:42.755Z,2.10
2019-05-20T07:22:11.301Z,1.77
2019-05-20T07:24:39.453Z,2.67
2019-05-20T07:27:07.698Z,1.60
2019-05-20T07:29:35.952Z,1.57
2019-05-20T07:32:04.549Z,2.20
2019-05-20T07:34:32.967Z,3.50
2019-05-20T07:37:03.956Z,1.90
2019-05-20T07:39:32.454Z,2.17
2019-05-20T07:42:01.496Z,2.55
2019-05-20T07:44:30.188Z,1.92
2019-05-20T07:46:58.957Z,3.05
2019-05-20T07:49:27.374Z,2.25
2019-05-20T07:51:56.176Z,0.70
2019-05-20T07:54:24.487Z,1.15
2019-05-20T07:56:52.714Z,3.00
2019-05-20T07:59:22.217Z,1.40
2019-05-20T08:01:50.711Z,3.58
2019-05-20T08:04:19.331Z,1.92
2019-05-20T08:06:47.529Z,2.08
2019-05-20T08:09:16.664Z,0.47
2019-05-20T08:11:45.120Z,0.43
2019-05-20T08:14:13.569Z,1.17
2019-05-20T08:16:42.015Z,1.50
2019-05-20T08:19:10.164Z,1.63
2019-05-20T08:21:38.953Z,0.80
2019-05-20T08:24:07.857Z,1.93
2019-05-20T08:26:36.225Z,0.97
2019-05-20T08:29:05.367Z,1.40
2019-05-20T08:31:33.815Z,1.37
2019-05-20T08:34:02.037Z,1.37
2019-05-20T08:36:30.763Z,1.37
2019-05-20T08:38:59.024Z,1.23
2019-05-20T08:41:27.571Z,3.20
2019-05-20T08:43:55.958Z,0.70
2019-05-20T08:46:24.754Z,2.83
2019-05-20T08:48:53.380Z,1.40
2019-05-20T08:51:21.668Z,2.98
2019-05-20T08:53:50.636Z,2.55
2019-05-20T08:56:19.146Z,0.80
2019-05-20T08:58:47.790Z,1.50
2019-05-20T09:01:16.430Z,0.72
2019-05-20T09:03:44.594Z,0.67
2019-05-20T09:06:12.988Z,2.62
2019-05-20T09:08:41.240Z,1.30
2019-05-20T09:11:10.736Z,1.10
2019-05-20T09:13:39.209Z,4.50
2019-05-20T09:16:07.474Z,0.70
2019-05-20T09:18:35.645Z,1.20
2019-05-20T09:21:04.005Z,1.30
2019-05-20T09:23:32.563Z,1.05
2019-05-20T09:26:01.050Z,1.25
2019-05-20T09:28:29.712Z,0.80
2019-05-20T09:30:58.109Z,1.00
2019-05-20T09:33:26.452Z,0.80
2019-05-20T09:35:54.788Z,0.85
2019-05-20T09:38:23.368Z,2.67
2019-05-20T09:40:51.812Z,0.70
2019-05-20T09:43:20.120Z,0.85
2019-05-20T09:46:05.263Z,1.67
2019-05-20T09:48:18.516Z,1.30
2019-05-20T09:50:46.998Z,0.93
2019-05-20T09:53:15.356Z,0.80
2019-05-20T09:55:44.370Z,1.07
2019-05-20T09:58:12.878Z,1.75
2019-05-20T10:00:41.328Z,1.60
2019-05-20T10:03:09.530Z,2.47
2019-05-20T10:05:38.153Z,5.97
2019-05-20T10:08:06.326Z,2.60
2019-05-20T10:10:34.860Z,1.95
2019-05-20T10:13:04.304Z,1.95
2019-05-20T10:15:33.089Z,3.47
2019-05-20T10:18:03.803Z,1.40
2019-05-20T10:20:32.490Z,1.52
2019-05-20T10:23:01.775Z,1.40
2019-05-20T10:25:32.272Z,1.60
2019-05-20T10:28:01.270Z,1.62
2019-05-20T10:30:29.410Z,1.40
2019-05-20T10:32:57.838Z,1.40
2019-05-20T10:35:26.311Z,1.60
2019-05-20T10:37:54.948Z,2.50
2019-05-20T10:40:24.071Z,2.25
2019-05-20T10:42:52.439Z,1.50
2019-05-20T10:45:20.838Z,1.50
2019-05-20T10:47:49.016Z,2.27
2019-05-20T10:50:18.127Z,13.15
2019-05-20T10:52:46.684Z,4.12
2019-05-20T10:55:14.852Z,2.10
2019-05-20T10:57:43.255Z,2.67
2019-05-20T11:00:11.885Z,3.25
2019-05-20T11:02:42.187Z,1.80
2019-05-20T11:05:10.648Z,1.90
2019-05-20T11:07:41.216Z,4.40
2019-05-20T11:10:11.688Z,2.83
2019-05-20T11:12:40.086Z,2.75
2019-05-20T11:15:09.514Z,2.90
2019-05-20T11:17:37.862Z,3.50
2019-05-20T11:20:06.913Z,3.27
2019-05-20T11:22:35.064Z,2.65
2019-05-20T11:25:05.057Z,2.12
2019-05-20T11:27:36.524Z,3.80
2019-05-20T11:30:05.835Z,3.90
2019-05-20T11:32:36.371Z,2.00
2019-05-20T11:35:06.013Z,3.20
2019-05-20T11:37:34.424Z,3.22
2019-05-20T11:40:05.133Z,3.60
2019-05-20T11:42:33.673Z,2.25
2019-05-20T11:45:02.223Z,1.57
2019-05-20T11:47:30.392Z,1.62
2019-05-20T11:49:58.668Z,2.47
2019-05-20T11:52:29.293Z,1.90
2019-05-20T11:54:57.879Z,3.52
2019-05-20T11:57:26.658Z,2.20
2019-05-20T11:59:57.153Z,3.17
2019-05-20T12:02:25.448Z,1.90
2019-05-20T12:04:54.569Z,3.12
2019-05-20T12:07:23.553Z,1.85
2019-05-20T12:09:51.803Z,2.92
2019-05-20T12:12:20.388Z,2.47
2019-05-20T12:14:49.493Z,4.70
2019-05-20T12:17:17.886Z,3.42
2019-05-20T12:19:46.316Z,2.40
2019-05-20T12:22:14.589Z,3.65
2019-05-20T12:24:43.330Z,3.30
2019-05-20T12:27:12.136Z,4.33
2019-05-20T12:29:40.818Z,3.52
2019-05-20T12:32:08.998Z,1.80
2019-05-20T12:34:37.656Z,2.45
2019-05-20T12:37:05.864Z,3.52
2019-05-20T12:39:34.630Z,3.50
2019-05-20T12:42:03.338Z,2.72
2019-05-20T12:44:32.163Z,2.20
2019-05-20T12:47:00.331Z,1.77
2019-05-20T12:49:28.675Z,1.85
2019-05-20T12:51:57.084Z,2.10
2019-05-20T12:54:25.993Z,2.15
2019-05-20T12:56:56.119Z,2.72
2019-05-20T12:59:24.401Z,2.33
2019-05-20T13:01:52.588Z,1.60
2019-05-20T13:04:20.871Z,1.67
2019-05-20T13:06:49.277Z,1.50
2019-05-20T13:09:17.705Z,2.00
2019-05-20T13:11:45.979Z,2.02
2019-05-20T13:14:14.259Z,2.87
2019-05-20T13:16:42.486Z,2.00
2019-05-20T13:19:12.528Z,3.00
2019-05-20T13:21:40.908Z,1.72
2019-05-20T13:24:09.097Z,2.22
2019-05-20T13:26:37.754Z,1.90
2019-05-20T13:29:06.086Z,2.75
2019-05-20T13:31:34.521Z,4.83
2019-05-20T13:34:02.762Z,1.80
2019-05-20T13:36:31.228Z,1.70
2019-05-20T13:39:00.277Z,2.92
2019-05-20T13:41:28.777Z,3.52
2019-05-20T13:43:57.522Z,2.33
2019-05-20T13:46:25.785Z,2.12
2019-05-20T13:48:54.018Z,1.82
2019-05-20T13:51:22.214Z,1.62
2019-05-20T13:53:50.693Z,1.60
2019-05-20T13:56:19.016Z,3.37
2019-05-20T13:58:47.276Z,2.27
2019-05-20T14:01:15.880Z,2.25
2019-05-20T14:03:44.256Z,5.50
2019-05-20T14:06:12.452Z,3.35
2019-05-20T14:08:40.782Z,4.08
2019-05-20T14:11:09.151Z,2.67
2019-05-20T14:13:37.699Z,1.60
2019-05-20T14:16:06.853Z,1.57
2019-05-20T14:18:35.286Z,3.35
2019-05-20T14:21:04.915Z,2.10
2019-05-20T14:23:33.471Z,3.00
2019-05-20T14:26:01.748Z,2.12
2019-05-20T14:28:29.980Z,2.10
2019-05-20T14:30:58.650Z,3.22
2019-05-20T14:33:27.004Z,2.05
2019-05-20T14:35:56.444Z,2.50
2019-05-20T14:38:24.850Z,2.00
2019-05-20T14:40:53.496Z,3.08
2019-05-20T14:43:22.308Z,1.75
2019-05-20T14:45:50.644Z,2.30
2019-05-20T14:48:19.336Z,2.15
2019-05-20T14:50:47.703Z,3.65
2019-05-20T14:53:15.936Z,2.45
2019-05-20T14:55:44.332Z,1.90
2019-05-20T14:58:12.868Z,1.92
2019-05-20T15:00:41.393Z,2.45
2019-05-20T15:03:09.654Z,3.62
2019-05-20T15:05:38.343Z,3.08
2019-05-20T15:08:07.305Z,3.37
2019-05-20T15:10:35.648Z,5.58
2019-05-20T15:13:04.035Z,2.67
2019-05-20T15:15:33.362Z,3.20
2019-05-20T15:18:01.714Z,2.20
2019-05-20T15:20:29.994Z,3.30
2019-05-20T15:22:59.387Z,2.00
2019-05-20T15:25:27.933Z,1.98
2019-05-20T15:27:56.166Z,2.83
2019-05-20T15:30:24.379Z,5.37
2019-05-20T15:32:54.928Z,2.60
2019-05-20T15:35:23.457Z,2.20
2019-05-20T15:37:52.038Z,2.92
2019-05-20T15:40:24.083Z,2.45
2019-05-20T15:42:50.789Z,2.33
2019-05-20T15:45:19.109Z,2.27
2019-05-20T15:47:47.794Z,2.42
2019-05-20T15:50:16.088Z,1.90
2019-05-20T15:52:44.694Z,2.77
2019-05-20T15:55:13.208Z,2.00
2019-05-20T15:57:41.910Z,2.10
2019-05-20T16:00:10.299Z,2.30
2019-05-20T16:02:38.875Z,3.45
2019-05-20T16:05:07.510Z,1.87
2019-05-20T16:07:36.153Z,2.22
2019-05-20T16:10:04.646Z,2.75
2019-05-20T16:12:34.394Z,3.50
2019-05-20T16:15:04.097Z,2.52
2019-05-20T16:17:32.593Z,3.87
2019-05-20T16:20:01.231Z,4.62
2019-05-20T16:22:29.840Z,3.00
2019-05-20T16:24:59.274Z,2.62
2019-05-20T16:27:27.480Z,1.50
2019-05-20T16:30:05.963Z,1.67
2019-05-20T16:32:26.545Z,2.47
2019-05-20T16:34:54.754Z,3.50
2019-05-20T16:37:23.128Z,3.25
2019-05-20T16:39:51.909Z,2.85
2019-05-20T16:42:20.481Z,2.05
2019-05-20T16:44:48.844Z,1.47
2019-05-20T16:47:17.100Z,1.32
2019-05-20T16:49:45.798Z,2.45
2019-05-20T16:52:14.301Z,1.72
2019-05-20T16:54:43.030Z,2.95
2019-05-20T16:57:11.369Z,1.47
2019-05-20T16:59:39.578Z,3.52
2019-05-20T17:02:07.905Z,2.17
2019-05-20T17:04:36.248Z,2.17
2019-05-20T17:07:04.587Z,2.02
2019-05-20T17:09:32.836Z,3.27
2019-05-20T17:12:01.130Z,2.60
2019-05-20T17:14:29.613Z,2.55
2019-05-20T17:16:58.122Z,2.12
2019-05-20T17:19:26.284Z,1.77
2019-05-20T17:21:54.838Z,1.70
2019-05-20T17:24:23.361Z,2.73
2019-05-20T17:26:52.922Z,14.50
2019-05-20T17:29:22.024Z,8.08
2019-05-20T17:31:50.481Z,10.17
2019-05-20T17:34:18.698Z,10.20
2019-05-20T17:36:47.255Z,11.70
2019-05-20T17:39:15.570Z,6.90
2019-05-20T17:41:44.243Z,4.87
2019-05-20T17:44:12.787Z,6.67
2019-05-20T17:46:41.367Z,15.23
2019-05-20T17:49:09.878Z,11.80
2019-05-20T17:51:38.279Z,13.27
2019-05-20T17:54:06.630Z,10.00
2019-05-20T17:56:35.213Z,8.83
2019-05-20T17:59:04.422Z,12.60
2019-05-20T18:01:33.608Z,10.13
2019-05-20T18:04:01.894Z,12.20
2019-05-20T18:06:30.228Z,14.13
2019-05-20T18:09:00.362Z,12.63
2019-05-20T18:11:29.091Z,10.80
2019-05-20T18:13:57.750Z,18.53
2019-05-20T18:16:26.303Z,23.80
2019-05-20T18:18:54.673Z,27.23
2019-05-20T18:21:24.246Z,25.10
2019-05-20T18:23:52.765Z,31.50
2019-05-20T18:26:21.574Z,28.17
2019-05-20T18:28:51.250Z,22.63
2019-05-20T18:31:31.950Z,14.43
2019-05-20T18:33:50.899Z,17.50
2019-05-20T18:36:19.223Z,14.30
2019-05-20T18:38:49.612Z,12.90
2019-05-20T18:41:17.691Z,13.17
2019-05-20T18:43:46.165Z,11.10
2019-05-20T18:46:14.729Z,17.53
2019-05-20T18:48:43.313Z,19.00
2019-05-20T18:51:11.605Z,18.90
2019-05-20T18:53:39.869Z,22.80
2019-05-20T18:56:08.133Z,16.23
2019-05-20T18:58:36.384Z,20.77
2019-05-20T19:01:05.119Z,20.30
2019-05-20T19:03:34.022Z,22.50
2019-05-20T19:06:07.292Z,21.20
2019-05-20T19:08:35.881Z,25.80
2019-05-20T19:11:04.775Z,15.97
2019-05-20T19:13:33.266Z,126.93
2019-05-20T19:16:02.024Z,41.93
2019-05-20T19:18:30.690Z,36.53
2019-05-20T19:20:59.102Z,31.60
2019-05-20T19:23:27.377Z,36.87
2019-05-20T19:26:02.002Z,35.07
2019-05-20T19:28:30.668Z,31.97
2019-05-20T19:31:00.048Z,23.07
2019-05-20T19:33:30.710Z,24.47
2019-05-20T19:36:00.805Z,18.40
2019-05-20T19:38:32.930Z,11.23
2019-05-20T19:40:59.648Z,10.23
2019-05-20T19:43:28.022Z,14.73
2019-05-20T19:45:56.558Z,13.17
2019-05-20T19:48:24.827Z,14.07
2019-05-20T19:50:53.160Z,14.13
2019-05-20T19:53:21.699Z,15.07
2019-05-20T19:55:50.522Z,14.33
2019-05-20T19:58:21.016Z,17.63
2019-05-20T20:00:49.649Z,21.63
2019-05-20T20:03:17.890Z,19.73
2019-05-20T20:05:46.372Z,26.57
2019-05-20T20:08:15.127Z,16.30
2019-05-20T20:10:43.717Z,13.47
2019-05-20T20:13:12.609Z,14.10
2019-05-20T20:15:43.572Z,15.97
2019-05-20T20:18:15.687Z,10.27
2019-05-20T20:20:47.050Z,12.83
2019-05-20T20:23:15.679Z,15.33
2019-05-20T20:25:43.854Z,25.57
2019-05-20T20:28:12.045Z,33.53
2019-05-20T20:30:40.912Z,26.97
2019-05-20T20:33:10.754Z,20.33
2019-05-20T20:35:39.302Z,23.67
2019-05-20T20:38:07.860Z,23.37
2019-05-20T20:40:36.203Z,21.47
2019-05-20T20:43:04.416Z,19.83
2019-05-20T20:45:34.687Z,23.53
2019-05-20T20:48:02.859Z,24.00
2019-05-20T20:50:35.769Z,22.80
2019-05-20T20:53:10.812Z,22.53
2019-05-20T20:55:41.357Z,20.67
2019-05-20T20:58:10.565Z,19.13
2019-05-20T21:00:38.859Z,14.20
2019-05-20T21:03:07.180Z,17.20
2019-05-20T21:05:36.253Z,15.67
2019-05-20T21:08:05.196Z,19.87
2019-05-20T21:10:33.898Z,19.37
2019-05-20T21:13:02.279Z,16.43
2019-05-20T21:15:30.513Z,24.07
2019-05-20T21:17:58.761Z,19.17
2019-05-20T21:20:29.337Z,18.07
2019-05-20T21:22:57.844Z,19.63
2019-05-20T21:25:26.321Z,16.20
2019-05-20T21:27:58.484Z,13.50
2019-05-20T21:30:38.877Z,11.60
2019-05-20T21:33:14.169Z,11.60
2019-05-20T21:35:45.347Z,10.30
2019-05-20T21:38:13.774Z,12.43
2019-05-20T21:40:44.432Z,17.57
2019-05-20T21:43:12.698Z,25.93
2019-05-20T21:45:44.941Z,26.43
2019-05-20T21:48:19.015Z,19.43
2019-05-20T21:50:47.954Z,14.50
2019-05-20T21:53:16.698Z,17.67
2019-05-20T21:55:44.876Z,17.50
2019-05-20T21:58:13.207Z,15.20
2019-05-20T22:00:45.575Z,15.17
2019-05-20T22:03:24.047Z,16.97
2019-05-20T22:05:48.159Z,17.07
2019-05-20T22:08:18.544Z,13.87
2019-05-20T22:10:49.284Z,14.63
2019-05-20T22:13:19.638Z,17.03
2019-05-20T22:15:48.032Z,12.50
2019-05-20T22:18:16.284Z,13.10
2019-05-20T22:20:47.002Z,11.57
2019-05-20T22:23:17.050Z,10.30
2019-05-20T22:25:50.122Z,13.23
2019-05-20T22:28:18.580Z,14.60
2019-05-20T22:30:51.305Z,14.67
2019-05-20T22:33:21.893Z,16.17
2019-05-20T22:35:50.102Z,15.17
2019-05-20T22:38:19.624Z,12.30
2019-05-20T22:40:52.166Z,19.27
2019-05-20T22:43:22.889Z,14.27
2019-05-20T22:45:51.420Z,14.03
2019-05-20T22:48:22.349Z,15.10
2019-05-20T22:50:51.438Z,13.90
2019-05-20T22:53:24.433Z,10.53
2019-05-20T22:55:52.965Z,12.30
2019-05-20T22:58:21.332Z,9.37
2019-05-20T23:00:52.318Z,10.80
2019-05-20T23:03:20.566Z,10.93
2019-05-20T23:05:48.845Z,11.17
2019-05-20T23:08:17.647Z,11.33
2019-05-20T23:10:45.987Z,11.67
2019-05-20T23:13:14.358Z,9.97
2019-05-20T23:15:43.045Z,9.73
2019-05-20T23:18:11.426Z,8.43
2019-05-20T23:20:39.575Z,12.50
2019-05-20T23:23:07.961Z,9.17
2019-05-20T23:25:36.474Z,11.40
2019-05-20T23:28:05.001Z,7.33
2019-05-20T23:30:33.552Z,8.60
2019-05-20T23:33:01.914Z,6.90
2019-05-20T23:35:30.269Z,7.53
2019-05-20T23:37:58.638Z,7.03
2019-05-20T23:40:28.475Z,5.33
2019-05-20T23:42:56.977Z,9.77
2019-05-20T23:45:25.538Z,8.20
2019-05-20T23:47:53.900Z,8.07
2019-05-20T23:50:22.415Z,9.47
2019-05-20T23:52:50.869Z,10.57
2019-05-20T23:55:19.524Z,8.37
2019-05-20T23:57:47.963Z,8.33
